sensor_id;sensor_type;location;lat;lon;timestamp;P1;durP1;ratioP1;P2;durP2;ratioP2
86679;SDS011;77423;53.554;9.916;2024-03-23T00:56:10;20.97;;;9.10;;
86679;SDS011;77423;53.554;9.916;2024-03-23T00:58:36;21.13;;;8.87;;
86679;SDS011;77423;53.554;9.916;2024-03-23T01:01:01;26.70;;;9.13;;
86679;SDS011;77423;53.554;9.916;2024-03-23T01:03:28;18.53;;;7.87;;
86679;SDS011;77423;53.554;9.916;2024-03-23T01:05:54;17.50;;;9.40;;
86679;SDS011;77423;53.554;9.916;2024-03-23T01:08:19;18.60;;;8.10;;
86679;SDS011;77423;53.554;9.916;2024-03-23T01:10:53;21.67;;;8.33;;
86679;SDS011;77423;53.554;9.916;2024-03-23T01:13:22;23.43;;;7.00;;
86679;SDS011;77423;53.554;9.916;2024-03-23T01:15:48;20.63;;;7.50;;
86679;SDS011;77423;53.554;9.916;2024-03-23T01:18:14;29.27;;;7.30;;
86679;SDS011;77423;53.554;9.916;2024-03-23T01:20:39;22.27;;;7.00;;
86679;SDS011;77423;53.554;9.916;2024-03-23T01:23:04;23.97;;;7.50;;
86679;SDS011;77423;53.554;9.916;2024-03-23T01:25:30;17.63;;;7.40;;
86679;SDS011;77423;53.554;9.916;2024-03-23T01:27:55;17.70;;;6.53;;
86679;SDS011;77423;53.554;9.916;2024-03-23T01:30:20;23.97;;;6.93;;
86679;SDS011;77423;53.554;9.916;2024-03-23T01:32:46;22.53;;;7.10;;
86679;SDS011;77423;53.554;9.916;2024-03-23T01:35:12;19.30;;;7.47;;
86679;SDS011;77423;53.554;9.916;2024-03-23T01:37:37;18.63;;;7.90;;
86679;SDS011;77423;53.554;9.916;2024-03-23T01:40:02;25.93;;;7.97;;
86679;SDS011;77423;53.554;9.916;2024-03-23T01:42:29;30.87;;;8.10;;
86679;SDS011;77423;53.554;9.916;2024-03-23T01:44:54;19.17;;;6.50;;
86679;SDS011;77423;53.554;9.916;2024-03-23T01:47:19;24.50;;;7.57;;
86679;SDS011;77423;53.554;9.916;2024-03-23T01:49:45;19.17;;;6.53;;
86679;SDS011;77423;53.554;9.916;2024-03-23T01:52:10;20.73;;;6.87;;
86679;SDS011;77423;53.554;9.916;2024-03-23T01:54:35;15.67;;;6.50;;
86679;SDS011;77423;53.554;9.916;2024-03-23T01:57:01;23.43;;;6.30;;
86679;SDS011;77423;53.554;9.916;2024-03-23T01:59:27;18.50;;;6.57;;
86679;SDS011;77423;53.554;9.916;2024-03-23T02:01:52;24.67;;;6.67;;
86679;SDS011;77423;53.554;9.916;2024-03-23T02:04:17;25.53;;;7.80;;
86679;SDS011;77423;53.554;9.916;2024-03-23T02:06:42;17.33;;;6.47;;
86679;SDS011;77423;53.554;9.916;2024-03-23T02:09:08;17.50;;;6.93;;
86679;SDS011;77423;53.554;9.916;2024-03-23T02:11:33;19.30;;;6.53;;
86679;SDS011;77423;53.554;9.916;2024-03-23T02:13:58;22.70;;;6.67;;
86679;SDS011;77423;53.554;9.916;2024-03-23T02:16:24;19.97;;;7.43;;
86679;SDS011;77423;53.554;9.916;2024-03-23T02:18:49;21.43;;;6.40;;
86679;SDS011;77423;53.554;9.916;2024-03-23T02:21:15;20.77;;;7.37;;
86679;SDS011;77423;53.554;9.916;2024-03-23T02:23:40;16.00;;;6.37;;
86679;SDS011;77423;53.554;9.916;2024-03-23T02:26:05;16.53;;;6.97;;
86679;SDS011;77423;53.554;9.916;2024-03-23T02:28:31;21.60;;;6.30;;
86679;SDS011;77423;53.554;9.916;2024-03-23T02:30:56;20.73;;;7.00;;
86679;SDS011;77423;53.554;9.916;2024-03-23T02:33:22;18.93;;;7.00;;
86679;SDS011;77423;53.554;9.916;2024-03-23T02:35:47;19.97;;;6.60;;
86679;SDS011;77423;53.554;9.916;2024-03-23T02:38:13;18.20;;;6.10;;
86679;SDS011;77423;53.554;9.916;2024-03-23T02:40:38;21.50;;;6.77;;
86679;SDS011;77423;53.554;9.916;2024-03-23T02:43:03;12.80;;;7.00;;
86679;SDS011;77423;53.554;9.916;2024-03-23T02:45:29;21.57;;;6.70;;
86679;SDS011;77423;53.554;9.916;2024-03-23T02:47:54;19.70;;;7.50;;
86679;SDS011;77423;53.554;9.916;2024-03-23T02:50:20;26.93;;;7.20;;
86679;SDS011;77423;53.554;9.916;2024-03-23T02:52:46;24.20;;;7.80;;
86679;SDS011;77423;53.554;9.916;2024-03-23T02:55:12;18.50;;;6.60;;
86679;SDS011;77423;53.554;9.916;2024-03-23T02:57:37;20.17;;;6.87;;
86679;SDS011;77423;53.554;9.916;2024-03-23T03:00:03;28.90;;;7.47;;
86679;SDS011;77423;53.554;9.916;2024-03-23T03:02:30;18.33;;;7.00;;
86679;SDS011;77423;53.554;9.916;2024-03-23T03:04:55;19.43;;;6.70;;
86679;SDS011;77423;53.554;9.916;2024-03-23T03:07:20;16.60;;;6.07;;
86679;SDS011;77423;53.554;9.916;2024-03-23T03:09:46;17.47;;;6.70;;
86679;SDS011;77423;53.554;9.916;2024-03-23T03:12:11;17.67;;;6.47;;
86679;SDS011;77423;53.554;9.916;2024-03-23T03:14:36;27.23;;;7.80;;
86679;SDS011;77423;53.554;9.916;2024-03-23T03:17:02;17.60;;;6.00;;
86679;SDS011;77423;53.554;9.916;2024-03-23T03:19:27;16.43;;;6.33;;
86679;SDS011;77423;53.554;9.916;2024-03-23T03:21:53;17.20;;;7.63;;
86679;SDS011;77423;53.554;9.916;2024-03-23T03:24:18;18.60;;;6.73;;
86679;SDS011;77423;53.554;9.916;2024-03-23T03:26:43;16.13;;;8.13;;
86679;SDS011;77423;53.554;9.916;2024-03-23T03:29:09;25.40;;;7.43;;
86679;SDS011;77423;53.554;9.916;2024-03-23T03:31:35;22.60;;;6.90;;
86679;SDS011;77423;53.554;9.916;2024-03-23T03:34:00;21.93;;;7.83;;
86679;SDS011;77423;53.554;9.916;2024-03-23T03:36:25;23.10;;;6.67;;
86679;SDS011;77423;53.554;9.916;2024-03-23T03:38:51;23.57;;;7.00;;
86679;SDS011;77423;53.554;9.916;2024-03-23T03:41:16;22.07;;;7.33;;
86679;SDS011;77423;53.554;9.916;2024-03-23T03:43:41;19.23;;;6.97;;
86679;SDS011;77423;53.554;9.916;2024-03-23T03:46:07;15.90;;;6.53;;
86679;SDS011;77423;53.554;9.916;2024-03-23T03:48:35;20.50;;;6.60;;
86679;SDS011;77423;53.554;9.916;2024-03-23T03:51:01;18.77;;;7.13;;
86679;SDS011;77423;53.554;9.916;2024-03-23T03:53:26;22.47;;;7.57;;
86679;SDS011;77423;53.554;9.916;2024-03-23T03:55:51;15.83;;;6.43;;
86679;SDS011;77423;53.554;9.916;2024-03-23T03:58:17;18.73;;;8.13;;
86679;SDS011;77423;53.554;9.916;2024-03-23T04:00:42;22.10;;;7.10;;
86679;SDS011;77423;53.554;9.916;2024-03-23T04:03:08;15.80;;;7.77;;
86679;SDS011;77423;53.554;9.916;2024-03-23T04:05:33;17.67;;;6.67;;
86679;SDS011;77423;53.554;9.916;2024-03-23T04:07:58;17.80;;;6.97;;
86679;SDS011;77423;53.554;9.916;2024-03-23T04:10:23;24.70;;;7.73;;
86679;SDS011;77423;53.554;9.916;2024-03-23T04:12:49;19.67;;;6.73;;
86679;SDS011;77423;53.554;9.916;2024-03-23T04:15:15;17.00;;;7.00;;
86679;SDS011;77423;53.554;9.916;2024-03-23T04:17:41;18.33;;;6.70;;
86679;SDS011;77423;53.554;9.916;2024-03-23T04:20:07;45.90;;;29.70;;
86679;SDS011;77423;53.554;9.916;2024-03-23T04:22:36;23.57;;;7.23;;
86679;SDS011;77423;53.554;9.916;2024-03-23T04:25:04;18.23;;;6.33;;
86679;SDS011;77423;53.554;9.916;2024-03-23T04:27:32;18.33;;;6.93;;
86679;SDS011;77423;53.554;9.916;2024-03-23T04:29:57;20.23;;;6.30;;
86679;SDS011;77423;53.554;9.916;2024-03-23T04:32:23;19.10;;;6.03;;
86679;SDS011;77423;53.554;9.916;2024-03-23T04:34:48;17.77;;;5.90;;
86679;SDS011;77423;53.554;9.916;2024-03-23T04:37:13;26.97;;;7.80;;
86679;SDS011;77423;53.554;9.916;2024-03-23T04:39:39;20.87;;;6.97;;
86679;SDS011;77423;53.554;9.916;2024-03-23T04:42:04;24.80;;;6.80;;
86679;SDS011;77423;53.554;9.916;2024-03-23T04:44:30;21.87;;;6.93;;
86679;SDS011;77423;53.554;9.916;2024-03-23T04:46:56;17.13;;;6.53;;
86679;SDS011;77423;53.554;9.916;2024-03-23T04:49:22;25.20;;;7.00;;
86679;SDS011;77423;53.554;9.916;2024-03-23T04:51:47;21.37;;;7.20;;
86679;SDS011;77423;53.554;9.916;2024-03-23T04:54:12;22.80;;;8.20;;
86679;SDS011;77423;53.554;9.916;2024-03-23T04:56:38;21.20;;;8.20;;
86679;SDS011;77423;53.554;9.916;2024-03-23T04:59:03;14.53;;;6.70;;
86679;SDS011;77423;53.554;9.916;2024-03-23T05:01:30;18.50;;;6.00;;
86679;SDS011;77423;53.554;9.916;2024-03-23T05:03:56;20.90;;;7.20;;
86679;SDS011;77423;53.554;9.916;2024-03-23T05:06:22;19.13;;;6.47;;
86679;SDS011;77423;53.554;9.916;2024-03-23T05:08:47;25.63;;;6.90;;
86679;SDS011;77423;53.554;9.916;2024-03-23T05:11:12;19.50;;;6.50;;
86679;SDS011;77423;53.554;9.916;2024-03-23T05:13:38;15.23;;;5.97;;
86679;SDS011;77423;53.554;9.916;2024-03-23T05:16:03;19.73;;;6.70;;
86679;SDS011;77423;53.554;9.916;2024-03-23T05:18:29;13.37;;;6.17;;
86679;SDS011;77423;53.554;9.916;2024-03-23T05:20:57;22.47;;;6.50;;
86679;SDS011;77423;53.554;9.916;2024-03-23T05:23:24;21.90;;;6.57;;
86679;SDS011;77423;53.554;9.916;2024-03-23T05:25:49;22.97;;;9.90;;
86679;SDS011;77423;53.554;9.916;2024-03-23T05:28:15;23.13;;;10.47;;
86679;SDS011;77423;53.554;9.916;2024-03-23T05:30:40;28.23;;;7.50;;
86679;SDS011;77423;53.554;9.916;2024-03-23T05:33:06;28.80;;;7.03;;
86679;SDS011;77423;53.554;9.916;2024-03-23T05:35:32;18.57;;;6.17;;
86679;SDS011;77423;53.554;9.916;2024-03-23T05:37:57;17.07;;;6.53;;
86679;SDS011;77423;53.554;9.916;2024-03-23T05:40:23;29.50;;;8.40;;
86679;SDS011;77423;53.554;9.916;2024-03-23T05:42:49;22.30;;;7.53;;
86679;SDS011;77423;53.554;9.916;2024-03-23T05:45:17;19.23;;;6.10;;
86679;SDS011;77423;53.554;9.916;2024-03-23T05:47:43;19.53;;;8.03;;
86679;SDS011;77423;53.554;9.916;2024-03-23T05:50:09;17.60;;;6.00;;
86679;SDS011;77423;53.554;9.916;2024-03-23T05:52:37;15.57;;;7.23;;
86679;SDS011;77423;53.554;9.916;2024-03-23T05:55:03;15.20;;;6.40;;
86679;SDS011;77423;53.554;9.916;2024-03-23T05:57:28;16.47;;;6.40;;
86679;SDS011;77423;53.554;9.916;2024-03-23T05:59:54;17.63;;;6.07;;
86679;SDS011;77423;53.554;9.916;2024-03-23T06:02:19;22.27;;;6.20;;
86679;SDS011;77423;53.554;9.916;2024-03-23T06:04:45;17.90;;;7.07;;
86679;SDS011;77423;53.554;9.916;2024-03-23T06:07:11;20.03;;;7.03;;
86679;SDS011;77423;53.554;9.916;2024-03-23T06:09:38;15.70;;;6.40;;
86679;SDS011;77423;53.554;9.916;2024-03-23T06:12:04;23.33;;;8.00;;
86679;SDS011;77423;53.554;9.916;2024-03-23T06:14:30;20.70;;;6.30;;
86679;SDS011;77423;53.554;9.916;2024-03-23T06:16:55;15.30;;;6.20;;
86679;SDS011;77423;53.554;9.916;2024-03-23T06:19:20;13.67;;;6.40;;
86679;SDS011;77423;53.554;9.916;2024-03-23T06:21:46;15.50;;;7.00;;
86679;SDS011;77423;53.554;9.916;2024-03-23T06:24:11;14.60;;;5.40;;
86679;SDS011;77423;53.554;9.916;2024-03-23T06:26:37;19.63;;;5.90;;
86679;SDS011;77423;53.554;9.916;2024-03-23T06:29:02;22.93;;;5.87;;
86679;SDS011;77423;53.554;9.916;2024-03-23T06:31:28;23.10;;;6.57;;
86679;SDS011;77423;53.554;9.916;2024-03-23T06:33:54;21.13;;;6.70;;
86679;SDS011;77423;53.554;9.916;2024-03-23T06:36:20;16.57;;;5.93;;
86679;SDS011;77423;53.554;9.916;2024-03-23T06:38:45;16.43;;;6.03;;
86679;SDS011;77423;53.554;9.916;2024-03-23T06:41:11;11.70;;;5.30;;
86679;SDS011;77423;53.554;9.916;2024-03-23T06:43:36;18.30;;;5.80;;
86679;SDS011;77423;53.554;9.916;2024-03-23T06:46:02;20.73;;;7.10;;
86679;SDS011;77423;53.554;9.916;2024-03-23T06:48:29;21.40;;;6.07;;
86679;SDS011;77423;53.554;9.916;2024-03-23T06:50:57;16.40;;;5.77;;
86679;SDS011;77423;53.554;9.916;2024-03-23T06:53:23;14.63;;;6.27;;
86679;SDS011;77423;53.554;9.916;2024-03-23T06:55:54;22.80;;;7.40;;
86679;SDS011;77423;53.554;9.916;2024-03-23T06:58:20;16.07;;;6.00;;
86679;SDS011;77423;53.554;9.916;2024-03-23T07:00:46;18.53;;;6.03;;
86679;SDS011;77423;53.554;9.916;2024-03-23T07:03:11;15.90;;;6.50;;
86679;SDS011;77423;53.554;9.916;2024-03-23T07:05:37;19.57;;;6.13;;
86679;SDS011;77423;53.554;9.916;2024-03-23T07:08:02;18.27;;;6.53;;
86679;SDS011;77423;53.554;9.916;2024-03-23T07:10:28;15.83;;;6.23;;
86679;SDS011;77423;53.554;9.916;2024-03-23T07:12:53;15.27;;;5.30;;
86679;SDS011;77423;53.554;9.916;2024-03-23T07:15:18;14.80;;;6.43;;
86679;SDS011;77423;53.554;9.916;2024-03-23T07:17:46;14.90;;;6.17;;
86679;SDS011;77423;53.554;9.916;2024-03-23T07:20:12;16.30;;;6.03;;
86679;SDS011;77423;53.554;9.916;2024-03-23T07:22:38;20.10;;;6.70;;
86679;SDS011;77423;53.554;9.916;2024-03-23T07:25:04;17.90;;;5.87;;
86679;SDS011;77423;53.554;9.916;2024-03-23T07:27:31;18.57;;;6.80;;
86679;SDS011;77423;53.554;9.916;2024-03-23T07:29:56;20.17;;;6.80;;
86679;SDS011;77423;53.554;9.916;2024-03-23T07:32:21;23.57;;;6.53;;
86679;SDS011;77423;53.554;9.916;2024-03-23T07:34:47;16.63;;;6.30;;
86679;SDS011;77423;53.554;9.916;2024-03-23T07:37:12;18.00;;;6.73;;
86679;SDS011;77423;53.554;9.916;2024-03-23T07:39:39;18.30;;;5.50;;
86679;SDS011;77423;53.554;9.916;2024-03-23T07:42:04;22.37;;;6.93;;
86679;SDS011;77423;53.554;9.916;2024-03-23T07:44:30;14.80;;;6.00;;
86679;SDS011;77423;53.554;9.916;2024-03-23T07:46:55;18.67;;;6.30;;
86679;SDS011;77423;53.554;9.916;2024-03-23T07:49:21;16.90;;;6.40;;
86679;SDS011;77423;53.554;9.916;2024-03-23T07:51:46;16.43;;;6.33;;
86679;SDS011;77423;53.554;9.916;2024-03-23T07:54:11;16.90;;;6.40;;
86679;SDS011;77423;53.554;9.916;2024-03-23T07:56:37;16.23;;;7.00;;
86679;SDS011;77423;53.554;9.916;2024-03-23T07:59:02;16.23;;;5.93;;
86679;SDS011;77423;53.554;9.916;2024-03-23T08:01:28;13.73;;;5.80;;
86679;SDS011;77423;53.554;9.916;2024-03-23T08:03:54;19.23;;;9.53;;
86679;SDS011;77423;53.554;9.916;2024-03-23T08:06:19;15.93;;;6.10;;
86679;SDS011;77423;53.554;9.916;2024-03-23T08:08:47;22.63;;;7.03;;
86679;SDS011;77423;53.554;9.916;2024-03-23T08:11:15;14.23;;;5.53;;
86679;SDS011;77423;53.554;9.916;2024-03-23T08:13:41;20.27;;;5.77;;
86679;SDS011;77423;53.554;9.916;2024-03-23T08:16:10;20.83;;;6.23;;
86679;SDS011;77423;53.554;9.916;2024-03-23T08:18:35;12.30;;;5.80;;
86679;SDS011;77423;53.554;9.916;2024-03-23T08:21:04;15.03;;;5.80;;
86679;SDS011;77423;53.554;9.916;2024-03-23T08:23:31;19.83;;;8.03;;
86679;SDS011;77423;53.554;9.916;2024-03-23T08:26:04;23.10;;;7.47;;
86679;SDS011;77423;53.554;9.916;2024-03-23T08:28:30;13.30;;;6.00;;
86679;SDS011;77423;53.554;9.916;2024-03-23T08:30:56;17.23;;;6.03;;
86679;SDS011;77423;53.554;9.916;2024-03-23T08:33:22;8.77;;;5.20;;
86679;SDS011;77423;53.554;9.916;2024-03-23T08:35:57;14.73;;;5.20;;
86679;SDS011;77423;53.554;9.916;2024-03-23T08:38:24;13.57;;;5.27;;
86679;SDS011;77423;53.554;9.916;2024-03-23T08:41:03;18.00;;;5.63;;
86679;SDS011;77423;53.554;9.916;2024-03-23T08:43:30;13.97;;;4.90;;
86679;SDS011;77423;53.554;9.916;2024-03-23T08:48:37;12.80;;;6.80;;
86679;SDS011;77423;53.554;9.916;2024-03-23T08:51:04;16.33;;;7.10;;
86679;SDS011;77423;53.554;9.916;2024-03-23T08:53:30;17.33;;;7.90;;
86679;SDS011;77423;53.554;9.916;2024-03-23T08:55:56;14.23;;;5.40;;
86679;SDS011;77423;53.554;9.916;2024-03-23T08:58:23;12.53;;;5.33;;
86679;SDS011;77423;53.554;9.916;2024-03-23T09:00:53;11.03;;;5.27;;
86679;SDS011;77423;53.554;9.916;2024-03-23T09:03:21;13.73;;;5.60;;
86679;SDS011;77423;53.554;9.916;2024-03-23T09:05:47;23.93;;;11.83;;
86679;SDS011;77423;53.554;9.916;2024-03-23T09:08:12;16.10;;;5.40;;
86679;SDS011;77423;53.554;9.916;2024-03-23T09:10:38;14.53;;;5.10;;
86679;SDS011;77423;53.554;9.916;2024-03-23T09:13:04;7.27;;;4.13;;
86679;SDS011;77423;53.554;9.916;2024-03-23T09:15:29;17.20;;;5.90;;
86679;SDS011;77423;53.554;9.916;2024-03-23T09:17:56;10.43;;;5.20;;
86679;SDS011;77423;53.554;9.916;2024-03-23T09:20:21;17.23;;;6.13;;
86679;SDS011;77423;53.554;9.916;2024-03-23T09:22:47;11.47;;;5.20;;
86679;SDS011;77423;53.554;9.916;2024-03-23T09:25:13;11.90;;;5.20;;
86679;SDS011;77423;53.554;9.916;2024-03-23T09:27:38;11.70;;;4.10;;
86679;SDS011;77423;53.554;9.916;2024-03-23T09:30:04;11.93;;;6.53;;
86679;SDS011;77423;53.554;9.916;2024-03-23T09:32:30;12.27;;;6.23;;
86679;SDS011;77423;53.554;9.916;2024-03-23T09:34:55;9.23;;;4.73;;
86679;SDS011;77423;53.554;9.916;2024-03-23T09:37:20;12.93;;;5.60;;
86679;SDS011;77423;53.554;9.916;2024-03-23T09:39:46;9.73;;;4.50;;
86679;SDS011;77423;53.554;9.916;2024-03-23T09:42:11;15.90;;;5.20;;
86679;SDS011;77423;53.554;9.916;2024-03-23T09:44:36;8.07;;;4.80;;
86679;SDS011;77423;53.554;9.916;2024-03-23T09:47:02;10.37;;;4.63;;
86679;SDS011;77423;53.554;9.916;2024-03-23T09:49:28;9.60;;;5.03;;
86679;SDS011;77423;53.554;9.916;2024-03-23T09:51:54;13.00;;;6.83;;
86679;SDS011;77423;53.554;9.916;2024-03-23T09:54:20;11.73;;;6.10;;
86679;SDS011;77423;53.554;9.916;2024-03-23T09:56:46;12.03;;;5.30;;
86679;SDS011;77423;53.554;9.916;2024-03-23T09:59:12;10.10;;;4.73;;
86679;SDS011;77423;53.554;9.916;2024-03-23T10:01:37;12.90;;;4.60;;
86679;SDS011;77423;53.554;9.916;2024-03-23T10:04:02;9.70;;;4.77;;
86679;SDS011;77423;53.554;9.916;2024-03-23T10:06:28;14.17;;;4.83;;
86679;SDS011;77423;53.554;9.916;2024-03-23T10:08:53;12.73;;;4.77;;
86679;SDS011;77423;53.554;9.916;2024-03-23T10:11:19;11.37;;;4.30;;
86679;SDS011;77423;53.554;9.916;2024-03-23T10:13:46;9.50;;;3.80;;
86679;SDS011;77423;53.554;9.916;2024-03-23T10:16:11;8.93;;;4.47;;
86679;SDS011;77423;53.554;9.916;2024-03-23T10:18:38;9.70;;;4.70;;
86679;SDS011;77423;53.554;9.916;2024-03-23T10:21:10;10.20;;;4.57;;
86679;SDS011;77423;53.554;9.916;2024-03-23T10:23:37;9.80;;;3.80;;
86679;SDS011;77423;53.554;9.916;2024-03-23T10:28:51;17.63;;;5.20;;
86679;SDS011;77423;53.554;9.916;2024-03-23T10:31:23;14.03;;;4.53;;
86679;SDS011;77423;53.554;9.916;2024-03-23T10:33:49;9.30;;;4.87;;
86679;SDS011;77423;53.554;9.916;2024-03-23T10:36:14;8.33;;;3.80;;
86679;SDS011;77423;53.554;9.916;2024-03-23T10:38:40;9.50;;;4.60;;
86679;SDS011;77423;53.554;9.916;2024-03-23T10:41:07;8.63;;;4.30;;
86679;SDS011;77423;53.554;9.916;2024-03-23T10:43:35;14.60;;;5.90;;
86679;SDS011;77423;53.554;9.916;2024-03-23T10:46:01;10.70;;;5.10;;
86679;SDS011;77423;53.554;9.916;2024-03-23T10:48:26;9.87;;;4.60;;
86679;SDS011;77423;53.554;9.916;2024-03-23T10:50:52;12.43;;;5.03;;
86679;SDS011;77423;53.554;9.916;2024-03-23T10:53:18;10.00;;;4.43;;
86679;SDS011;77423;53.554;9.916;2024-03-23T10:55:44;8.73;;;4.80;;
86679;SDS011;77423;53.554;9.916;2024-03-23T10:58:31;11.90;;;5.97;;
86679;SDS011;77423;53.554;9.916;2024-03-23T11:01:02;12.17;;;5.63;;
86679;SDS011;77423;53.554;9.916;2024-03-23T11:03:37;8.57;;;4.20;;
86679;SDS011;77423;53.554;9.916;2024-03-23T11:06:04;7.63;;;3.87;;
86679;SDS011;77423;53.554;9.916;2024-03-23T11:08:35;6.93;;;3.83;;
86679;SDS011;77423;53.554;9.916;2024-03-23T11:11:18;7.00;;;4.20;;
86679;SDS011;77423;53.554;9.916;2024-03-23T11:13:46;8.67;;;3.60;;
86679;SDS011;77423;53.554;9.916;2024-03-23T11:18:42;7.13;;;3.60;;
86679;SDS011;77423;53.554;9.916;2024-03-23T11:21:09;7.10;;;3.73;;
86679;SDS011;77423;53.554;9.916;2024-03-23T11:23:34;7.30;;;3.63;;
86679;SDS011;77423;53.554;9.916;2024-03-23T11:26:00;10.27;;;4.53;;
86679;SDS011;77423;53.554;9.916;2024-03-23T11:28:25;5.60;;;3.17;;
86679;SDS011;77423;53.554;9.916;2024-03-23T11:30:51;9.03;;;4.67;;
86679;SDS011;77423;53.554;9.916;2024-03-23T11:33:16;6.60;;;2.87;;
86679;SDS011;77423;53.554;9.916;2024-03-23T11:35:42;7.03;;;3.57;;
86679;SDS011;77423;53.554;9.916;2024-03-23T11:38:08;8.40;;;3.80;;
86679;SDS011;77423;53.554;9.916;2024-03-23T11:40:34;9.17;;;4.10;;
86679;SDS011;77423;53.554;9.916;2024-03-23T11:43:11;5.70;;;3.10;;
86679;SDS011;77423;53.554;9.916;2024-03-23T11:45:44;6.27;;;3.80;;
86679;SDS011;77423;53.554;9.916;2024-03-23T11:48:15;7.93;;;3.93;;
86679;SDS011;77423;53.554;9.916;2024-03-23T11:50:48;6.03;;;3.67;;
86679;SDS011;77423;53.554;9.916;2024-03-23T11:53:21;7.57;;;3.63;;
86679;SDS011;77423;53.554;9.916;2024-03-23T11:58:13;5.83;;;3.17;;
86679;SDS011;77423;53.554;9.916;2024-03-23T12:00:39;8.63;;;3.20;;
86679;SDS011;77423;53.554;9.916;2024-03-23T12:03:05;4.00;;;2.70;;
86679;SDS011;77423;53.554;9.916;2024-03-23T12:05:34;5.83;;;2.37;;
86679;SDS011;77423;53.554;9.916;2024-03-23T12:10:46;3.63;;;2.30;;
86679;SDS011;77423;53.554;9.916;2024-03-23T12:13:17;3.50;;;2.23;;
86679;SDS011;77423;53.554;9.916;2024-03-23T12:15:47;3.70;;;2.17;;
86679;SDS011;77423;53.554;9.916;2024-03-23T12:18:15;4.90;;;3.03;;
86679;SDS011;77423;53.554;9.916;2024-03-23T12:20:40;4.83;;;2.70;;
86679;SDS011;77423;53.554;9.916;2024-03-23T12:23:07;7.50;;;2.93;;
86679;SDS011;77423;53.554;9.916;2024-03-23T12:25:36;6.93;;;3.10;;
86679;SDS011;77423;53.554;9.916;2024-03-23T12:28:02;4.77;;;2.90;;
86679;SDS011;77423;53.554;9.916;2024-03-23T12:30:28;4.20;;;3.10;;
86679;SDS011;77423;53.554;9.916;2024-03-23T12:32:53;7.50;;;3.37;;
86679;SDS011;77423;53.554;9.916;2024-03-23T12:35:19;5.13;;;2.87;;
86679;SDS011;77423;53.554;9.916;2024-03-23T12:37:44;6.60;;;2.40;;
86679;SDS011;77423;53.554;9.916;2024-03-23T12:40:10;4.53;;;2.50;;
86679;SDS011;77423;53.554;9.916;2024-03-23T12:42:35;5.90;;;2.70;;
86679;SDS011;77423;53.554;9.916;2024-03-23T12:45:00;7.00;;;2.20;;
86679;SDS011;77423;53.554;9.916;2024-03-23T12:47:26;9.13;;;2.97;;
86679;SDS011;77423;53.554;9.916;2024-03-23T12:49:52;4.33;;;2.37;;
86679;SDS011;77423;53.554;9.916;2024-03-23T12:52:20;5.90;;;3.90;;
86679;SDS011;77423;53.554;9.916;2024-03-23T12:54:46;5.23;;;2.53;;
86679;SDS011;77423;53.554;9.916;2024-03-23T12:57:11;8.00;;;2.87;;
86679;SDS011;77423;53.554;9.916;2024-03-23T12:59:37;4.43;;;2.50;;
86679;SDS011;77423;53.554;9.916;2024-03-23T13:02:03;6.03;;;2.60;;
86679;SDS011;77423;53.554;9.916;2024-03-23T13:04:28;5.43;;;2.70;;
86679;SDS011;77423;53.554;9.916;2024-03-23T13:06:53;8.13;;;2.60;;
86679;SDS011;77423;53.554;9.916;2024-03-23T13:09:18;8.30;;;3.03;;
86679;SDS011;77423;53.554;9.916;2024-03-23T13:11:44;4.03;;;2.60;;
86679;SDS011;77423;53.554;9.916;2024-03-23T13:14:09;5.33;;;2.70;;
86679;SDS011;77423;53.554;9.916;2024-03-23T13:16:35;5.33;;;2.73;;
86679;SDS011;77423;53.554;9.916;2024-03-23T13:19:00;7.03;;;3.40;;
86679;SDS011;77423;53.554;9.916;2024-03-23T13:21:26;6.00;;;2.60;;
86679;SDS011;77423;53.554;9.916;2024-03-23T13:23:51;5.80;;;3.87;;
86679;SDS011;77423;53.554;9.916;2024-03-23T13:26:16;6.93;;;3.00;;
86679;SDS011;77423;53.554;9.916;2024-03-23T13:28:42;4.60;;;3.10;;
86679;SDS011;77423;53.554;9.916;2024-03-23T13:31:07;5.10;;;3.40;;
86679;SDS011;77423;53.554;9.916;2024-03-23T13:33:33;5.83;;;3.20;;
86679;SDS011;77423;53.554;9.916;2024-03-23T13:35:58;6.53;;;3.23;;
86679;SDS011;77423;53.554;9.916;2024-03-23T13:38:24;4.83;;;3.27;;
86679;SDS011;77423;53.554;9.916;2024-03-23T13:40:50;6.50;;;3.30;;
86679;SDS011;77423;53.554;9.916;2024-03-23T13:43:20;5.30;;;2.90;;
86679;SDS011;77423;53.554;9.916;2024-03-23T13:45:49;4.50;;;2.80;;
86679;SDS011;77423;53.554;9.916;2024-03-23T13:48:18;4.40;;;2.50;;
86679;SDS011;77423;53.554;9.916;2024-03-23T13:50:45;3.73;;;2.70;;
86679;SDS011;77423;53.554;9.916;2024-03-23T13:53:12;4.50;;;3.27;;
86679;SDS011;77423;53.554;9.916;2024-03-23T13:55:37;3.27;;;2.27;;
86679;SDS011;77423;53.554;9.916;2024-03-23T13:58:10;3.57;;;2.30;;
86679;SDS011;77423;53.554;9.916;2024-03-23T14:00:37;4.57;;;2.00;;
86679;SDS011;77423;53.554;9.916;2024-03-23T14:03:02;4.53;;;2.20;;
86679;SDS011;77423;53.554;9.916;2024-03-23T14:05:28;4.53;;;2.20;;
86679;SDS011;77423;53.554;9.916;2024-03-23T14:07:53;3.80;;;2.30;;
86679;SDS011;77423;53.554;9.916;2024-03-23T14:10:18;5.17;;;2.17;;
86679;SDS011;77423;53.554;9.916;2024-03-23T14:12:43;3.47;;;2.60;;
86679;SDS011;77423;53.554;9.916;2024-03-23T14:15:09;4.07;;;2.20;;
86679;SDS011;77423;53.554;9.916;2024-03-23T14:17:34;3.70;;;2.27;;
86679;SDS011;77423;53.554;9.916;2024-03-23T14:19:59;4.10;;;2.50;;
86679;SDS011;77423;53.554;9.916;2024-03-23T14:22:26;4.43;;;2.90;;
86679;SDS011;77423;53.554;9.916;2024-03-23T14:24:52;5.87;;;2.50;;
86679;SDS011;77423;53.554;9.916;2024-03-23T14:27:18;5.40;;;2.57;;
86679;SDS011;77423;53.554;9.916;2024-03-23T14:29:45;4.60;;;2.50;;
86679;SDS011;77423;53.554;9.916;2024-03-23T14:32:11;4.80;;;2.97;;
86679;SDS011;77423;53.554;9.916;2024-03-23T14:34:36;3.63;;;2.43;;
86679;SDS011;77423;53.554;9.916;2024-03-23T14:37:02;5.13;;;2.77;;
86679;SDS011;77423;53.554;9.916;2024-03-23T14:39:28;6.57;;;3.00;;
86679;SDS011;77423;53.554;9.916;2024-03-23T14:41:53;4.97;;;3.40;;
86679;SDS011;77423;53.554;9.916;2024-03-23T14:44:19;4.37;;;2.70;;
86679;SDS011;77423;53.554;9.916;2024-03-23T14:46:44;4.23;;;2.57;;
86679;SDS011;77423;53.554;9.916;2024-03-23T14:49:14;8.03;;;3.33;;
86679;SDS011;77423;53.554;9.916;2024-03-23T14:51:41;5.30;;;3.10;;
86679;SDS011;77423;53.554;9.916;2024-03-23T14:54:06;10.50;;;3.50;;
86679;SDS011;77423;53.554;9.916;2024-03-23T14:56:32;5.87;;;3.10;;
86679;SDS011;77423;53.554;9.916;2024-03-23T14:59:00;4.53;;;3.40;;
86679;SDS011;77423;53.554;9.916;2024-03-23T15:01:25;5.93;;;3.20;;
86679;SDS011;77423;53.554;9.916;2024-03-23T15:03:51;5.60;;;2.80;;
86679;SDS011;77423;53.554;9.916;2024-03-23T15:06:18;4.00;;;2.37;;
86679;SDS011;77423;53.554;9.916;2024-03-23T15:08:44;6.33;;;2.73;;
86679;SDS011;77423;53.554;9.916;2024-03-23T15:11:09;4.70;;;2.60;;
86679;SDS011;77423;53.554;9.916;2024-03-23T15:13:35;5.10;;;2.70;;
86679;SDS011;77423;53.554;9.916;2024-03-23T15:16:02;3.97;;;2.80;;
86679;SDS011;77423;53.554;9.916;2024-03-23T15:18:28;3.07;;;2.07;;
86679;SDS011;77423;53.554;9.916;2024-03-23T15:20:58;3.70;;;2.40;;
86679;SDS011;77423;53.554;9.916;2024-03-23T15:23:28;3.57;;;2.20;;
86679;SDS011;77423;53.554;9.916;2024-03-23T15:25:57;3.37;;;2.07;;
86679;SDS011;77423;53.554;9.916;2024-03-23T15:28:23;5.63;;;2.23;;
86679;SDS011;77423;53.554;9.916;2024-03-23T15:30:52;3.40;;;2.40;;
86679;SDS011;77423;53.554;9.916;2024-03-23T15:33:17;7.97;;;2.70;;
86679;SDS011;77423;53.554;9.916;2024-03-23T15:35:42;4.70;;;2.67;;
86679;SDS011;77423;53.554;9.916;2024-03-23T15:38:08;4.10;;;2.90;;
86679;SDS011;77423;53.554;9.916;2024-03-23T15:40:34;5.50;;;2.97;;